Time;durP1;ratioP1;P1;durP2;ratioP2;P2;SDS_P1;SDS_P2;PMS_P1;PMS_P2;Temp;Humidity;BMP_temperature;BMP_pressure;BME280_temperature;BME280_humidity;BME280_pressure;Samples;Min_cycle;Max_cycle;Signal;HPM_P1;HPM_P2
2023/09/23 10:59:08;;;;;;;;;;;17.70;99.90;;;;;;2226979;54;54604;-64
2023/09/23 11:01:39;;;;;;;;;;;17.50;99.90;;;;;;2612866;54;19946;-64
2023/09/23 11:04:09;;;;;;;;;;;17.40;99.90;;;;;;2612568;54;19950;-66
2023/09/23 11:06:39;;;;;;;;;;;17.40;99.90;;;;;;2609752;47;20881;-66
2023/09/23 11:09:09;;;;;;;;;;;17.30;99.90;;;;;;2611997;54;19951;-66
2023/09/23 11:11:39;;;;;;;;;;;17.40;99.90;;;;;;2611899;54;19953;-66
2023/09/23 11:14:16;;;;;;;;;;;17.50;99.90;;;;;;2612174;39;20132;-61
2023/09/23 11:16:46;;;;;;;;;;;17.70;99.90;;;;;;2615300;47;19962;-63
2023/09/23 11:19:17;;;;;;;;;;;18.00;99.90;;;;;;2611118;39;20386;-63
2023/09/23 11:21:47;;;;;;;;;;;18.20;99.90;;;;;;2612648;39;20381;-61
2023/09/23 11:24:18;;;;;;;;;;;18.50;99.90;;;;;;2611909;54;20065;-61
2023/09/23 11:26:48;;;;;;;;;;;18.70;99.90;;;;;;2612710;47;19946;-62
2023/09/23 11:29:20;;;;;;;;;;;18.90;99.90;;;;;;2613039;47;19946;-62
2023/09/23 11:31:50;;;;;;;;;;;19.10;99.90;;;;;;2613572;54;19955;-64
2023/09/23 11:34:19;;;;;;;;;;;19.40;99.90;;;;;;2613355;47;20447;-64
2023/09/23 11:36:49;;;;;;;;;;;19.60;99.90;;;;;;2613071;54;19946;-65
2023/09/23 11:39:19;;;;;;;;;;;19.90;99.90;;;;;;2612860;47;20016;-64
2023/09/23 11:41:54;;;;;;;;;;;19.90;99.90;;;;;;2612124;47;19953;-65
2023/09/23 11:44:28;;;;;;;;;;;20.10;99.90;;;;;;2612555;47;19970;-65
2023/09/23 11:46:59;;;;;;;;;;;20.30;99.90;;;;;;2613822;54;19962;-70
2023/09/23 11:49:28;;;;;;;;;;;20.40;99.90;;;;;;2615017;54;20002;-65
2023/09/23 11:51:59;;;;;;;;;;;20.40;99.90;;;;;;2618883;47;20354;-65
2023/09/23 11:54:28;;;;;;;;;;;20.20;99.90;;;;;;2611979;54;19946;-66
2023/09/23 11:56:58;;;;;;;;;;;20.20;99.90;;;;;;2612027;54;19947;-70
2023/09/23 11:59:31;;;;;;;;;;;19.90;99.90;;;;;;2612630;54;19947;-60
2023/09/23 12:02:00;;;;;;;;;;;20.10;99.90;;;;;;2612766;39;20343;-60
2023/09/23 12:04:30;;;;;;;;;;;20.50;99.90;;;;;;2612698;54;19947;-70
2023/09/23 12:07:00;;;;;;;;;;;20.10;99.90;;;;;;2612954;54;19998;-69
2023/09/23 12:09:34;;;;;;;;;;;20.20;99.90;;;;;;2612684;54;20745;-70
2023/09/23 12:12:03;;;;;;;;;;;20.20;99.90;;;;;;2613142;54;19947;-69
2023/09/23 12:14:36;;;;;;;;;;;20.30;99.90;;;;;;2612998;47;19947;-70
2023/09/23 12:17:06;;;;;;;;;;;20.40;99.90;;;;;;2612913;54;20195;-65
2023/09/23 12:19:37;;;;;;;;;;;20.60;99.90;;;;;;2613108;47;19953;-65
2023/09/23 12:22:06;;;;;;;;;;;20.70;99.90;;;;;;2611997;54;19974;-65
2023/09/23 12:24:36;;;;;;;;;;;20.60;99.90;;;;;;2612602;47;19939;-64
2023/09/23 12:27:06;;;;;;;;;;;20.40;99.90;;;;;;2611892;54;19953;-64
2023/09/23 12:29:38;;;;;;;;;;;20.20;99.90;;;;;;2612874;47;19950;-64
2023/09/23 12:32:08;;;;;;;;;;;20.00;99.90;;;;;;2612982;54;19953;-64
2023/09/23 12:34:38;;;;;;;;;;;19.70;99.90;;;;;;2613492;54;19946;-65
2023/09/23 12:37:08;;;;;;;;;;;19.60;99.90;;;;;;2613019;54;20066;-65
2023/09/23 12:39:38;;;;;;;;;;;19.50;99.90;;;;;;2613476;54;19953;-65
2023/09/23 12:42:08;;;;;;;;;;;19.50;99.90;;;;;;2613396;54;19947;-62
2023/09/23 12:44:41;;;;;;;;;;;19.50;99.90;;;;;;2613484;54;19953;-64
2023/09/23 12:47:11;;;;;;;;;;;18.50;99.90;;;;;;2613455;54;19946;-65
2023/09/23 12:49:43;;;;;;;;;;;20.00;99.90;;;;;;2613382;54;20424;-55
2023/09/23 12:52:13;;;;;;;;;;;20.30;99.90;;;;;;2613571;39;20320;-65
2023/09/23 12:54:43;;;;;;;;;;;20.40;99.90;;;;;;2614035;54;19990;-67
2023/09/23 12:57:13;;;;;;;;;;;20.50;99.90;;;;;;2615165;54;19951;-67
2023/09/23 12:59:45;;;;;;;;;;;20.60;99.90;;;;;;2615415;47;19946;-67
2023/09/23 13:02:17;;;;;;;;;;;20.70;99.90;;;;;;2615253;47;19947;-67
2023/09/23 13:04:47;;;;;;;;;;;20.90;99.90;;;;;;2613311;47;19946;-65
2023/09/23 13:07:17;;;;;;;;;;;20.90;99.90;;;;;;2613159;54;20398;-63
2023/09/23 13:09:47;;;;;;;;;;;20.90;99.90;;;;;;2613076;50;19947;-64
2023/09/23 13:12:16;;;;;;;;;;;20.80;99.90;;;;;;2618414;54;20046;-66
2023/09/23 13:14:49;;;;;;;;;;;21.10;99.90;;;;;;2618171;54;19947;-65
2023/09/23 13:17:18;;;;;;;;;;;21.00;99.90;;;;;;2616488;54;19953;-65
2023/09/23 13:19:48;;;;;;;;;;;20.90;99.90;;;;;;2612697;46;19953;-65
2023/09/23 13:22:18;;;;;;;;;;;20.80;99.90;;;;;;2612593;54;19953;-64
2023/09/23 13:24:49;;;;;;;;;;;20.80;99.90;;;;;;2613118;54;19950;-63
2023/09/23 13:27:20;;;;;;;;;;;20.90;99.90;;;;;;2612789;47;20526;-64
2023/09/23 13:29:53;;;;;;;;;;;20.80;99.90;;;;;;2612878;54;19946;-65
2023/09/23 13:32:23;;;;;;;;;;;20.70;99.90;;;;;;2613646;54;19953;-67
2023/09/23 13:34:52;;;;;;;;;;;20.60;99.90;;;;;;2614516;54;19946;-68
2023/09/23 13:37:22;;;;;;;;;;;20.50;99.90;;;;;;2614651;54;19946;-68
2023/09/23 13:39:52;;;;;;;;;;;20.70;99.90;;;;;;2614898;54;19952;-67
2023/09/23 13:42:21;;;;;;;;;;;20.90;99.90;;;;;;2615180;54;19946;-67
2023/09/23 13:44:54;;;;;;;;;;;21.00;99.90;;;;;;2616282;39;20382;-67
2023/09/23 13:47:23;;;;;;;;;;;21.20;99.90;;;;;;2617486;54;19953;-67
2023/09/23 13:49:53;;;;;;;;;;;21.20;99.90;;;;;;2619873;49;19947;-67
2023/09/23 13:52:23;;;;;;;;;;;21.30;99.90;;;;;;2619286;39;20363;-68
2023/09/23 13:54:52;;;;;;;;;;;21.50;99.90;;;;;;2616731;54;19954;-68
2023/09/23 13:57:22;;;;;;;;;;;21.50;99.90;;;;;;2615215;54;19946;-67
2023/09/23 13:59:54;;;;;;;;;;;21.40;99.90;;;;;;2614441;54;19946;-67
2023/09/23 14:02:24;;;;;;;;;;;21.40;99.90;;;;;;2614250;54;20427;-67
2023/09/23 14:04:54;;;;;;;;;;;21.00;99.90;;;;;;2614999;47;19946;-69
2023/09/23 14:07:24;;;;;;;;;;;20.70;99.90;;;;;;2614144;54;19978;-64
2023/09/23 14:09:54;;;;;;;;;;;20.40;99.90;;;;;;2612013;54;19946;-68
2023/09/23 14:12:35;;;;;;;;;;;20.30;99.90;;;;;;2613606;47;19947;-67
2023/09/23 14:15:07;;;;;;;;;;;20.10;99.90;;;;;;2614284;54;20421;-67
2023/09/23 14:17:37;;;;;;;;;;;20.00;99.90;;;;;;2615208;54;19946;-67
2023/09/23 14:20:09;;;;;;;;;;;19.90;99.90;;;;;;2615735;54;19939;-68
2023/09/23 14:22:39;;;;;;;;;;;19.80;99.90;;;;;;2615138;54;20499;-66
2023/09/23 14:25:09;;;;;;;;;;;19.90;99.90;;;;;;2615628;47;19947;-66
2023/09/23 14:27:39;;;;;;;;;;;20.10;99.90;;;;;;2615722;49;20599;-66
2023/09/23 14:30:12;;;;;;;;;;;21.50;99.90;;;;;;2616386;54;19946;-64
2023/09/23 14:32:42;;;;;;;;;;;23.50;99.90;;;;;;2615035;54;19946;-67
2023/09/23 14:35:12;;;;;;;;;;;25.80;99.90;;;;;;2616773;54;19946;-68
2023/09/23 14:37:44;;;;;;;;;;;27.50;99.90;;;;;;2615731;54;20458;-67
2023/09/23 14:40:14;;;;;;;;;;;29.30;99.90;;;;;;2615829;54;19955;-67
2023/09/23 14:42:44;;;;;;;;;;;31.20;99.90;;;;;;2614389;47;19946;-68
2023/09/23 14:45:17;;;;;;;;;;;32.90;99.90;;;;;;2613603;54;20079;-67
2023/09/23 14:47:47;;;;;;;;;;;34.20;99.90;;;;;;2614847;47;19946;-68
2023/09/23 14:50:17;;;;;;;;;;;34.70;97.00;;;;;;2615004;39;20588;-67
2023/09/23 14:52:48;;;;;;;;;;;35.20;95.50;;;;;;2616137;54;20628;-67
2023/09/23 14:55:17;;;;;;;;;;;35.00;94.10;;;;;;2617060;39;20433;-57
2023/09/23 14:57:48;;;;;;;;;;;35.50;93.00;;;;;;2615953;54;20486;-66
2023/09/23 15:00:20;;;;;;;;;;;36.00;91.00;;;;;;2616858;39;20289;-70
2023/09/23 15:02:50;;;;;;;;;;;36.60;90.10;;;;;;2620009;47;20014;-70
2023/09/23 15:05:20;;;;;;;;;;;37.00;84.80;;;;;;2620370;47;19950;-70
2023/09/23 15:07:50;;;;;;;;;;;36.90;83.30;;;;;;2618158;54;19961;-70
2023/09/23 15:10:20;;;;;;;;;;;37.00;81.00;;;;;;2612942;47;19947;-68
2023/09/23 15:12:55;;;;;;;;;;;37.00;79.70;;;;;;2618625;54;19953;-68
2023/09/23 15:15:28;;;;;;;;;;;37.40;79.40;;;;;;2612706;46;19953;-71
2023/09/23 15:17:57;;;;;;;;;;;37.40;76.70;;;;;;2612846;54;19946;-71
2023/09/23 15:20:27;;;;;;;;;;;37.40;75.10;;;;;;2613210;47;19958;-71
2023/09/23 15:22:57;;;;;;;;;;;36.50;75.60;;;;;;2613486;48;20041;-70
2023/09/23 15:25:27;;;;;;;;;;;36.40;73.90;;;;;;2614006;54;19953;-71
2023/09/23 15:27:57;;;;;;;;;;;35.70;75.80;;;;;;2614281;54;19958;-71
2023/09/23 15:30:29;;;;;;;;;;;35.40;75.70;;;;;;2613776;54;19946;-71
2023/09/23 15:32:59;;;;;;;;;;;35.10;75.00;;;;;;2614939;54;20243;-71
2023/09/23 15:35:29;;;;;;;;;;;35.50;75.60;;;;;;2614266;54;19947;-72
2023/09/23 15:37:59;;;;;;;;;;;35.50;75.60;;;;;;2614105;54;19958;-70
2023/09/23 15:40:29;;;;;;;;;;;35.40;74.20;;;;;;2613962;54;19947;-71
2023/09/23 15:42:59;;;;;;;;;;;35.20;74.90;;;;;;2613194;47;19947;-73
2023/09/23 15:45:32;;;;;;;;;;;33.80;76.60;;;;;;2612353;54;19954;-71
2023/09/23 15:48:02;;;;;;;;;;;32.10;78.60;;;;;;2614544;54;19947;-71
2023/09/23 15:50:32;;;;;;;;;;;30.30;82.10;;;;;;2613061;54;19957;-71
2023/09/23 15:53:02;;;;;;;;;;;28.70;84.50;;;;;;2613740;47;19954;-70
2023/09/23 15:55:34;;;;;;;;;;;27.50;86.40;;;;;;2615023;54;19938;-73
2023/09/23 15:58:05;;;;;;;;;;;26.50;90.00;;;;;;2615229;54;19947;-72
2023/09/23 16:00:38;;;;;;;;;;;25.50;90.40;;;;;;2615637;54;19947;-73
2023/09/23 16:03:09;;;;;;;;;;;24.40;91.70;;;;;;2614748;54;19955;-70
2023/09/23 16:05:42;;;;;;;;;;;23.50;92.70;;;;;;2614865;47;19950;-71
2023/09/23 16:08:13;;;;;;;;;;;22.70;93.50;;;;;;2614867;39;20199;-72
2023/09/23 16:10:52;;;;;;;;;;;22.40;94.80;;;;;;2619507;39;20245;-73
2023/09/23 16:13:25;;;;;;;;;;;22.10;96.10;;;;;;2615486;39;20260;-69
2023/09/23 16:15:58;;;;;;;;;;;21.60;96.30;;;;;;2614631;54;19947;-72
2023/09/23 16:18:29;;;;;;;;;;;21.40;97.10;;;;;;2614615;39;20339;-70
2023/09/23 16:20:59;;;;;;;;;;;21.20;98.30;;;;;;2614284;39;20222;-60
2023/09/23 16:23:29;;;;;;;;;;;21.10;99.10;;;;;;2613952;47;20479;-58
2023/09/23 16:26:01;;;;;;;;;;;20.90;99.90;;;;;;2613694;54;19968;-59
2023/09/23 16:28:32;;;;;;;;;;;20.70;99.90;;;;;;2614909;47;19972;-58
2023/09/23 16:31:05;;;;;;;;;;;20.50;99.90;;;;;;2616747;54;19957;-59
2023/09/23 16:33:38;;;;;;;;;;;20.30;99.90;;;;;;2615424;54;20508;-61
2023/09/23 16:36:09;;;;;;;;;;;20.20;99.90;;;;;;2618283;54;19990;-60
2023/09/23 16:38:40;;;;;;;;;;;20.10;99.90;;;;;;2612785;47;20439;-58
2023/09/23 16:41:10;;;;;;;;;;;20.00;99.90;;;;;;2613637;31;20439;-59
2023/09/23 16:43:40;;;;;;;;;;;19.90;99.90;;;;;;2614823;54;20012;-60
2023/09/23 16:46:13;;;;;;;;;;;19.80;99.90;;;;;;2614090;39;20488;-60
2023/09/23 16:48:43;;;;;;;;;;;19.70;99.90;;;;;;2612869;54;19947;-59
2023/09/23 16:51:13;;;;;;;;;;;19.60;99.90;;;;;;2612603;47;19989;-59
2023/09/23 16:53:43;;;;;;;;;;;19.40;99.90;;;;;;2613713;54;19946;-59
2023/09/23 16:56:26;;;;;;;;;;;19.30;99.90;;;;;;2616134;54;19953;-58
2023/09/23 16:59:10;;;;;;;;;;;19.30;99.90;;;;;;2612927;47;20482;-60
2023/09/23 17:01:42;;;;;;;;;;;19.20;99.90;;;;;;2613085;47;19946;-58
2023/09/23 17:04:13;;;;;;;;;;;19.10;99.90;;;;;;2613896;47;19946;-58
2023/09/23 17:06:42;;;;;;;;;;;19.00;99.90;;;;;;2615060;47;19947;-59
2023/09/23 17:09:13;;;;;;;;;;;19.00;99.90;;;;;;2613276;47;19970;-58
2023/09/23 17:11:43;;;;;;;;;;;18.90;99.90;;;;;;2617634;47;19954;-59
2023/09/23 17:14:13;;;;;;;;;;;19.30;99.90;;;;;;2617527;54;19946;-59
2023/09/23 17:16:58;;;;;;;;;;;18.80;99.90;;;;;;2618394;47;19947;-70
2023/09/23 17:19:37;;;;;;;;;;;18.70;99.90;;;;;;2619986;47;20057;-71
2023/09/23 17:22:07;;;;;;;;;;;18.60;99.90;;;;;;2620225;54;19946;-71
2023/09/23 17:24:36;;;;;;;;;;;18.50;99.90;;;;;;2620095;54;19946;-71
2023/09/23 17:27:06;;;;;;;;;;;18.50;99.90;;;;;;2620238;54;19951;-72
2023/09/23 17:29:36;;;;;;;;;;;18.40;99.90;;;;;;2620788;47;19994;-70
2023/09/23 17:32:06;;;;;;;;;;;18.30;99.90;;;;;;2618444;54;19946;-71
2023/09/23 17:34:39;;;;;;;;;;;18.20;99.90;;;;;;2617939;47;19947;-70
2023/09/23 17:37:10;;;;;;;;;;;18.10;99.90;;;;;;2618014;47;19947;-71
2023/09/23 17:39:40;;;;;;;;;;;18.00;99.90;;;;;;2617122;47;19947;-71
2023/09/23 17:42:10;;;;;;;;;;;17.90;99.90;;;;;;2617438;54;19954;-71
2023/09/23 17:44:44;;;;;;;;;;;17.90;99.90;;;;;;2618213;54;19946;-71
2023/09/23 17:47:14;;;;;;;;;;;17.80;99.90;;;;;;2619336;54;19946;-71
2023/09/23 17:49:47;;;;;;;;;;;17.80;99.90;;;;;;2617497;54;19947;-72
2023/09/23 17:52:17;;;;;;;;;;;17.70;99.90;;;;;;2618455;47;19973;-71
2023/09/23 17:54:48;;;;;;;;;;;17.30;99.90;;;;;;2617913;54;19947;-72
2023/09/23 17:57:18;;;;;;;;;;;17.50;99.90;;;;;;2617416;39;20423;-74
2023/09/23 17:59:48;;;;;;;;;;;17.40;99.90;;;;;;2617744;47;19950;-73
2023/09/23 18:02:18;;;;;;;;;;;17.30;99.90;;;;;;2617313;54;19994;-73
2023/09/23 18:04:50;;;;;;;;;;;17.30;99.90;;;;;;2617944;54;19958;-73
2023/09/23 18:07:20;;;;;;;;;;;17.20;99.90;;;;;;2618032;47;20443;-73
2023/09/23 18:09:50;;;;;;;;;;;17.10;99.90;;;;;;2618557;39;20242;-73
2023/09/23 18:12:19;;;;;;;;;;;17.10;99.90;;;;;;2618897;39;20430;-75
2023/09/23 18:14:49;;;;;;;;;;;17.00;99.90;;;;;;2618186;39;20398;-73
2023/09/23 18:17:19;;;;;;;;;;;17.00;99.90;;;;;;2617473;51;19947;-70
2023/09/23 18:19:51;;;;;;;;;;;16.90;99.90;;;;;;2616845;54;19951;-71
2023/09/23 18:22:21;;;;;;;;;;;16.80;99.90;;;;;;2616881;54;19973;-73
2023/09/23 18:24:50;;;;;;;;;;;16.70;99.90;;;;;;2617293;51;19947;-71
2023/09/23 18:27:20;;;;;;;;;;;16.60;99.90;;;;;;2617560;54;19985;-71
2023/09/23 18:29:51;;;;;;;;;;;16.60;99.90;;;;;;2617124;54;19947;-71
2023/09/23 18:32:21;;;;;;;;;;;16.50;99.90;;;;;;2617467;54;20443;-71
2023/09/23 18:34:53;;;;;;;;;;;16.40;99.90;;;;;;2616849;47;20034;-72
2023/09/23 18:37:23;;;;;;;;;;;16.40;99.90;;;;;;2617256;54;19975;-72
2023/09/23 18:39:55;;;;;;;;;;;16.30;99.90;;;;;;2616306;54;19954;-72
2023/09/23 18:42:24;;;;;;;;;;;16.30;99.90;;;;;;2616709;47;19947;-71
2023/09/23 18:44:54;;;;;;;;;;;16.20;99.90;;;;;;2620155;46;20014;-72
2023/09/23 18:47:24;;;;;;;;;;;16.20;99.90;;;;;;2620676;54;19939;-72
2023/09/23 18:49:56;;;;;;;;;;;16.10;99.90;;;;;;2618326;39;20355;-72
2023/09/23 18:52:26;;;;;;;;;;;16.10;99.90;;;;;;2617552;54;19946;-72
2023/09/23 18:54:55;;;;;;;;;;;16.00;99.90;;;;;;2617094;47;19969;-72
2023/09/23 18:57:25;;;;;;;;;;;16.00;99.90;;;;;;2617503;47;19947;-72
2023/09/23 18:59:55;;;;;;;;;;;16.00;99.90;;;;;;2617317;54;19957;-72
2023/09/23 19:02:25;;;;;;;;;;;15.90;99.90;;;;;;2617348;54;19938;-72
2023/09/23 19:04:57;;;;;;;;;;;15.80;99.90;;;;;;2617012;54;19973;-72
2023/09/23 19:07:27;;;;;;;;;;;15.80;99.90;;;;;;2616988;47;19947;-72
2023/09/23 19:09:56;;;;;;;;;;;15.80;99.90;;;;;;2621979;54;19949;-72
2023/09/23 19:12:26;;;;;;;;;;;15.80;99.90;;;;;;2629027;54;19950;-72
2023/09/23 19:14:56;;;;;;;;;;;15.70;99.90;;;;;;2628427;54;20006;-72
2023/09/23 19:17:26;;;;;;;;;;;15.70;99.90;;;;;;2627624;54;19946;-72
2023/09/23 19:19:58;;;;;;;;;;;15.70;99.90;;;;;;2627251;54;19942;-71
2023/09/23 19:22:28;;;;;;;;;;;15.70;99.90;;;;;;2626837;54;19949;-72
2023/09/23 19:24:58;;;;;;;;;;;15.60;99.90;;;;;;2625631;47;19998;-72
2023/09/23 19:27:27;;;;;;;;;;;15.50;99.90;;;;;;2622567;54;19947;-73
2023/09/23 19:29:57;;;;;;;;;;;15.50;99.90;;;;;;2616933;54;20041;-72
2023/09/23 19:32:27;;;;;;;;;;;15.40;99.90;;;;;;2617311;54;19946;-73
2023/09/23 19:34:59;;;;;;;;;;;15.40;99.90;;;;;;2617731;54;19954;-73
2023/09/23 19:37:29;;;;;;;;;;;15.30;99.90;;;;;;2616728;47;19939;-72
2023/09/23 19:39:59;;;;;;;;;;;15.30;99.90;;;;;;2617992;47;19939;-73
2023/09/23 19:42:28;;;;;;;;;;;15.30;99.90;;;;;;2617402;54;19946;-72
2023/09/23 19:45:00;;;;;;;;;;;15.30;99.90;;;;;;2617515;47;19954;-72
2023/09/23 19:47:30;;;;;;;;;;;15.30;99.90;;;;;;2616173;54;19955;-72
2023/09/23 19:50:06;;;;;;;;;;;15.20;99.90;;;;;;2615543;54;19954;-73
2023/09/23 19:52:36;;;;;;;;;;;15.10;99.90;;;;;;2615757;48;20026;-73
2023/09/23 19:55:06;;;;;;;;;;;15.10;99.90;;;;;;2616195;54;19946;-73
2023/09/23 19:57:36;;;;;;;;;;;15.10;99.90;;;;;;2615281;47;19953;-71
2023/09/23 20:00:08;;;;;;;;;;;15.10;99.90;;;;;;2615704;54;19950;-72
2023/09/23 20:02:37;;;;;;;;;;;15.10;99.90;;;;;;2615442;47;19950;-71
2023/09/23 20:05:11;;;;;;;;;;;15.00;99.90;;;;;;2614637;54;19951;-71
2023/09/23 20:07:41;;;;;;;;;;;15.00;99.90;;;;;;2614062;54;19970;-72
2023/09/23 20:10:11;;;;;;;;;;;15.00;99.90;;;;;;2614357;54;19950;-71
2023/09/23 20:12:40;;;;;;;;;;;15.00;99.90;;;;;;2615675;54;19946;-72
2023/09/23 20:15:10;;;;;;;;;;;15.00;99.90;;;;;;2615917;47;19953;-72
2023/09/23 20:17:45;;;;;;;;;;;14.90;99.90;;;;;;2616807;54;19947;-72
2023/09/23 20:20:18;;;;;;;;;;;14.90;99.90;;;;;;2616585;54;19938;-72
2023/09/23 20:22:48;;;;;;;;;;;14.90;99.90;;;;;;2615918;54;20731;-72
2023/09/23 20:25:18;;;;;;;;;;;14.90;99.90;;;;;;2615483;54;20423;-72
2023/09/23 20:27:48;;;;;;;;;;;14.80;99.90;;;;;;2615255;54;19973;-71
2023/09/23 20:30:18;;;;;;;;;;;14.80;99.90;;;;;;2616032;47;19947;-72
2023/09/23 20:32:48;;;;;;;;;;;14.80;99.90;;;;;;2616344;39;20343;-72
2023/09/23 20:35:22;;;;;;;;;;;14.80;99.90;;;;;;2615931;54;20455;-72
2023/09/23 20:37:52;;;;;;;;;;;14.70;99.90;;;;;;2615215;54;19954;-72
2023/09/23 20:40:21;;;;;;;;;;;14.70;99.90;;;;;;2615495;54;20485;-73
2023/09/23 20:42:52;;;;;;;;;;;14.70;99.90;;;;;;2615232;47;20112;-72
2023/09/23 20:45:21;;;;;;;;;;;14.70;99.90;;;;;;2615417;54;20514;-72
2023/09/23 20:47:51;;;;;;;;;;;14.80;99.90;;;;;;2615515;54;19946;-72
2023/09/23 20:50:27;;;;;;;;;;;14.70;99.90;;;;;;2615681;54;19958;-72
2023/09/23 20:52:57;;;;;;;;;;;14.70;99.90;;;;;;2615535;54;19953;-72
2023/09/23 20:55:27;;;;;;;;;;;14.60;99.90;;;;;;2615135;54;19947;-73
2023/09/23 20:57:57;;;;;;;;;;;14.70;99.90;;;;;;2616513;54;20546;-72
2023/09/23 21:00:27;;;;;;;;;;;14.60;99.90;;;;;;2618663;47;19938;-73
2023/09/23 21:02:56;;;;;;;;;;;14.60;99.90;;;;;;2620531;54;19994;-73
2023/09/23 21:05:29;;;;;;;;;;;14.50;99.90;;;;;;2621670;54;20450;-73
2023/09/23 21:07:59;;;;;;;;;;;14.50;99.90;;;;;;2622256;39;20411;-72
2023/09/23 21:10:29;;;;;;;;;;;14.50;99.90;;;;;;2617510;47;19946;-72
2023/09/23 21:12:58;;;;;;;;;;;14.40;99.90;;;;;;2618193;39;20358;-73
2023/09/23 21:15:28;;;;;;;;;;;14.40;99.90;;;;;;2616172;54;19946;-73
2023/09/23 21:18:00;;;;;;;;;;;14.30;99.90;;;;;;2616748;54;19946;-72
2023/09/23 21:20:32;;;;;;;;;;;14.40;99.90;;;;;;2617103;54;19947;-73
2023/09/23 21:23:05;;;;;;;;;;;14.30;99.90;;;;;;2616534;54;19946;-72
2023/09/23 21:25:34;;;;;;;;;;;14.20;99.90;;;;;;2616824;54;19947;-75
2023/09/23 21:28:04;;;;;;;;;;;14.20;99.90;;;;;;2616858;54;19957;-76
2023/09/23 21:30:36;;;;;;;;;;;14.20;99.90;;;;;;2617854;47;19947;-75
2023/09/23 21:33:06;;;;;;;;;;;14.20;99.90;;;;;;2617422;47;19953;-75
2023/09/23 21:35:39;;;;;;;;;;;14.20;99.90;;;;;;2617011;54;20036;-75
2023/09/23 21:38:09;;;;;;;;;;;14.20;99.90;;;;;;2617457;47;19947;-74
2023/09/23 21:40:50;;;;;;;;;;;14.20;99.90;;;;;;2624211;54;20446;-77
2023/09/23 21:43:23;;;;;;;;;;;14.20;99.90;;;;;;2616549;54;20058;-77
2023/09/23 21:45:54;;;;;;;;;;;14.20;99.90;;;;;;2616572;47;19946;-77
2023/09/23 21:48:24;;;;;;;;;;;14.10;99.90;;;;;;2618095;39;20368;-77
2023/09/23 21:51:01;;;;;;;;;;;14.10;99.90;;;;;;2617519;47;20487;-77
2023/09/23 21:53:30;;;;;;;;;;;14.00;99.90;;;;;;2618312;39;20394;-77
2023/09/23 21:56:00;;;;;;;;;;;14.00;99.90;;;;;;2617950;39;20359;-74
2023/09/23 21:58:30;;;;;;;;;;;14.00;99.90;;;;;;2617520;54;19953;-75
2023/09/23 22:01:01;;;;;;;;;;;13.90;99.90;;;;;;2617824;54;19946;-75
2023/09/23 22:03:34;;;;;;;;;;;13.90;99.90;;;;;;2617633;54;19962;-75
2023/09/23 22:06:07;;;;;;;;;;;13.90;99.90;;;;;;2618425;47;19950;-75
2023/09/23 22:08:37;;;;;;;;;;;13.90;99.90;;;;;;2618054;54;20054;-75
2023/09/23 22:11:07;;;;;;;;;;;13.90;99.90;;;;;;2617601;54;19950;-75
2023/09/23 22:13:36;;;;;;;;;;;13.80;99.90;;;;;;2617215;54;19947;-75
2023/09/23 22:16:06;;;;;;;;;;;13.80;99.90;;;;;;2617640;39;20338;-75
2023/09/23 22:18:36;;;;;;;;;;;13.80;99.90;;;;;;2616694;47;19954;-75
2023/09/23 22:21:08;;;;;;;;;;;13.80;99.90;;;;;;2617678;54;20634;-75
2023/09/23 22:23:38;;;;;;;;;;;13.80;99.90;;;;;;2617530;54;19954;-74
2023/09/23 22:26:14;;;;;;;;;;;13.80;99.90;;;;;;2617976;54;19938;-73
2023/09/23 22:28:44;;;;;;;;;;;13.80;99.90;;;;;;2618000;54;19938;-75
2023/09/23 22:31:15;;;;;;;;;;;13.70;99.90;;;;;;2617838;47;19954;-74
2023/09/23 22:33:45;;;;;;;;;;;13.70;99.90;;;;;;2618286;54;19939;-73
2023/09/23 22:36:18;;;;;;;;;;;13.60;99.90;;;;;;2617815;54;20230;-74
2023/09/23 22:38:49;;;;;;;;;;;13.60;99.90;;;;;;2617787;54;19951;-73
2023/09/23 22:41:20;;;;;;;;;;;13.50;99.90;;;;;;2617492;47;19939;-73
2023/09/23 22:43:49;;;;;;;;;;;13.50;99.90;;;;;;2617516;54;20450;-75
2023/09/23 22:46:19;;;;;;;;;;;13.50;99.90;;;;;;2617686;54;19959;-73
2023/09/23 22:48:49;;;;;;;;;;;13.50;99.90;;;;;;2617529;54;19946;-74
2023/09/23 22:51:22;;;;;;;;;;;13.50;99.90;;;;;;2617864;39;20005;-74
2023/09/23 22:53:52;;;;;;;;;;;13.40;99.90;;;;;;2617535;47;19947;-74
2023/09/23 22:56:22;;;;;;;;;;;13.40;99.90;;;;;;2617620;47;19946;-75
2023/09/23 22:58:51;;;;;;;;;;;13.40;99.90;;;;;;2617548;39;20378;-77
2023/09/23 23:01:21;;;;;;;;;;;13.40;99.90;;;;;;2618882;31;20419;-74
2023/09/23 23:03:52;;;;;;;;;;;13.50;99.90;;;;;;2617390;47;20430;-75
2023/09/23 23:06:24;;;;;;;;;;;13.40;99.90;;;;;;2617380;54;20308;-74
2023/09/23 23:08:54;;;;;;;;;;;13.40;99.90;;;;;;2617351;54;19947;-75
2023/09/23 23:11:24;;;;;;;;;;;13.30;99.90;;;;;;2617527;54;19946;-76
2023/09/23 23:13:55;;;;;;;;;;;13.30;99.90;;;;;;2617383;54;19958;-74
2023/09/23 23:16:25;;;;;;;;;;;13.30;99.90;;;;;;2617651;47;19938;-74
2023/09/23 23:19:01;;;;;;;;;;;13.20;99.90;;;;;;2617201;54;19946;-72
2023/09/23 23:21:33;;;;;;;;;;;13.20;99.90;;;;;;2617986;47;19946;-72
2023/09/23 23:24:03;;;;;;;;;;;13.20;99.90;;;;;;2620784;47;19946;-72
2023/09/23 23:26:32;;;;;;;;;;;13.20;99.90;;;;;;2623236;47;19957;-72
2023/09/23 23:29:02;;;;;;;;;;;13.20;99.90;;;;;;2619251;54;20554;-72
2023/09/23 23:31:34;;;;;;;;;;;13.10;99.90;;;;;;2617901;47;20442;-73
2023/09/23 23:34:04;;;;;;;;;;;13.20;99.90;;;;;;2617786;54;20458;-73
2023/09/23 23:36:36;;;;;;;;;;;13.10;99.90;;;;;;2617567;51;19947;-73
2023/09/23 23:39:07;;;;;;;;;;;13.10;99.90;;;;;;2619297;54;19947;-73
2023/09/23 23:41:38;;;;;;;;;;;13.10;99.90;;;;;;2628276;47;19983;-72
2023/09/23 23:44:08;;;;;;;;;;;13.10;99.90;;;;;;2628830;39;20524;-72
2023/09/23 23:46:38;;;;;;;;;;;13.10;99.90;;;;;;2628430;39;20198;-72
2023/09/23 23:49:08;;;;;;;;;;;13.10;99.90;;;;;;2627971;47;19927;-72
2023/09/23 23:51:40;;;;;;;;;;;13.00;99.90;;;;;;2626627;47;19994;-73
2023/09/23 23:54:10;;;;;;;;;;;13.00;99.90;;;;;;2626510;47;20448;-73
2023/09/23 23:56:39;;;;;;;;;;;13.00;99.90;;;;;;2623355;47;19938;-73
2023/09/23 23:59:10;;;;;;;;;;;12.90;99.90;;;;;;2617347;54;19991;-73
